createdAt,value
2022-12-14T00:01:19.348Z,27.69
2022-12-14T00:03:50.270Z,27.69
2022-12-14T00:06:26.060Z,27.71
2022-12-14T00:08:58.524Z,27.69
2022-12-14T00:11:29.157Z,27.70
2022-12-14T00:14:02.327Z,27.73
2022-12-14T00:16:35.076Z,27.69
2022-12-14T00:19:07.571Z,27.69
2022-12-14T00:21:37.741Z,27.71
2022-12-14T00:24:07.952Z,27.74
2022-12-14T00:26:38.034Z,27.73
2022-12-14T00:29:08.035Z,27.72
2022-12-14T00:31:38.600Z,27.71
2022-12-14T00:34:08.907Z,27.74
2022-12-14T00:36:40.101Z,27.68
2022-12-14T00:39:10.265Z,27.70
2022-12-14T00:41:40.325Z,27.69
2022-12-14T00:44:10.368Z,27.69
2022-12-14T00:46:40.414Z,27.69
2022-12-14T00:49:11.366Z,27.72
2022-12-14T00:51:41.500Z,27.78
2022-12-14T00:54:11.736Z,27.74
2022-12-14T00:56:41.679Z,27.70
2022-12-14T00:59:11.704Z,27.73
2022-12-14T01:01:42.036Z,27.75
2022-12-14T01:04:21.713Z,27.75
2022-12-14T01:06:54.088Z,27.71
2022-12-14T01:09:26.156Z,27.75
2022-12-14T01:11:56.282Z,27.76
2022-12-14T01:14:26.286Z,27.80
2022-12-14T01:16:56.248Z,27.84
2022-12-14T01:19:26.379Z,27.79
2022-12-14T01:21:56.398Z,27.81
2022-12-14T01:24:26.418Z,27.81
2022-12-14T01:26:57.304Z,27.83
2022-12-14T01:29:27.556Z,27.84
2022-12-14T01:31:57.772Z,27.83
2022-12-14T01:34:28.288Z,27.81
2022-12-14T01:36:58.306Z,27.87
2022-12-14T01:39:28.534Z,27.83
2022-12-14T01:41:58.857Z,27.83
2022-12-14T01:44:28.971Z,27.84
2022-12-14T01:47:30.838Z,27.81
2022-12-14T01:50:10.612Z,27.84
2022-12-14T01:52:50.456Z,27.84
2022-12-14T01:55:25.515Z,27.87
2022-12-14T01:58:12.213Z,27.87
2022-12-14T02:00:43.088Z,27.87
2022-12-14T02:03:29.720Z,27.88
2022-12-14T14:06:45.178Z,27.84
2022-12-14T14:10:35.992Z,27.61
2022-12-14T14:13:30.640Z,27.55
2022-12-14T14:16:27.387Z,27.50
2022-12-14T14:18:57.314Z,27.45
2022-12-14T14:21:42.767Z,27.46
2022-12-14T14:24:24.501Z,27.46
2022-12-14T14:27:25.895Z,27.47
2022-12-14T14:29:57.824Z,27.38
2022-12-14T14:32:36.269Z,27.48
2022-12-14T14:35:39.980Z,27.63
2022-12-14T14:38:25.966Z,27.78
2022-12-14T14:41:18.549Z,27.86
2022-12-14T14:44:05.619Z,27.93
2022-12-14T14:46:48.643Z,28.02
2022-12-14T14:49:36.636Z,28.04
2022-12-14T14:52:41.728Z,28.09
2022-12-14T14:55:54.809Z,28.14
2022-12-14T14:58:38.240Z,28.18
2022-12-14T15:01:09.925Z,28.18
2022-12-14T15:03:46.295Z,28.20
2022-12-14T15:06:42.387Z,28.19
2022-12-14T15:09:15.934Z,28.21
2022-12-14T15:12:06.405Z,28.21
2022-12-14T15:14:48.473Z,28.22
2022-12-14T15:17:21.789Z,28.27
2022-12-14T15:19:54.379Z,28.25
2022-12-14T15:22:34.257Z,28.23
2022-12-14T15:25:06.055Z,28.21
2022-12-14T15:27:41.613Z,28.19
2022-12-14T15:30:15.024Z,28.24
2022-12-14T15:33:12.864Z,28.22
2022-12-14T15:35:49.367Z,28.23
2022-12-14T15:38:33.050Z,28.22
2022-12-14T15:41:17.383Z,28.24
2022-12-14T15:43:50.186Z,28.21
2022-12-14T15:46:28.018Z,28.20
2022-12-14T15:49:00.059Z,28.24
2022-12-14T15:51:35.490Z,28.24
2022-12-14T15:54:08.291Z,28.22
2022-12-14T15:56:46.433Z,28.20
2022-12-14T15:59:20.126Z,28.20
2022-12-14T16:01:56.040Z,28.22
2022-12-14T16:04:32.103Z,28.23
2022-12-14T16:07:15.670Z,28.21
2022-12-14T16:09:53.664Z,28.22
2022-12-14T16:12:49.454Z,28.20
2022-12-14T16:15:26.803Z,28.20
2022-12-14T16:18:02.566Z,28.14
2022-12-14T16:20:36.550Z,28.14
2022-12-14T16:23:18.700Z,28.16
2022-12-14T16:26:05.428Z,28.11
2022-12-14T16:28:38.585Z,28.16
2022-12-14T16:31:24.852Z,28.13
2022-12-14T16:34:25.819Z,28.15
2022-12-14T16:39:55.252Z,28.11
2022-12-14T16:42:29.776Z,28.04
2022-12-14T16:45:00.008Z,27.99
2022-12-14T16:48:04.148Z,28.02
2022-12-14T16:50:55.495Z,28.00
2022-12-14T16:53:28.089Z,27.96
2022-12-14T16:56:07.505Z,28.00
2022-12-14T16:58:39.010Z,27.93
2022-12-14T17:01:12.540Z,27.95
2022-12-14T17:03:43.310Z,27.92
2022-12-14T17:06:27.371Z,27.93
2022-12-14T17:08:57.644Z,27.98
2022-12-14T17:11:27.597Z,27.95
2022-12-14T17:13:57.967Z,27.95
2022-12-14T17:16:28.367Z,27.93
2022-12-14T17:18:59.309Z,27.95
2022-12-14T17:21:31.794Z,27.95
2022-12-14T17:24:02.176Z,27.93
2022-12-14T17:26:34.240Z,27.93
2022-12-14T17:29:04.480Z,27.98
2022-12-14T17:31:34.951Z,27.95
2022-12-14T17:34:05.105Z,27.96
2022-12-14T17:36:35.143Z,27.92
2022-12-14T17:39:05.184Z,27.94
2022-12-14T17:41:35.364Z,27.93
2022-12-14T17:44:05.727Z,27.95
2022-12-14T17:46:36.067Z,27.98
2022-12-14T17:49:08.984Z,27.94
2022-12-14T17:51:44.116Z,27.94
2022-12-14T17:54:25.913Z,27.92
2022-12-14T17:56:59.232Z,27.88
2022-12-14T17:59:30.414Z,27.83
2022-12-14T18:02:00.673Z,27.86
2022-12-14T18:04:31.116Z,27.89
2022-12-14T18:07:01.066Z,27.84
2022-12-14T18:09:31.089Z,27.84
2022-12-14T18:12:22.760Z,27.81
2022-12-14T18:14:51.323Z,27.86
2022-12-14T18:17:22.480Z,27.84
2022-12-14T18:19:52.680Z,27.84
2022-12-14T18:22:24.020Z,27.82
2022-12-14T18:24:54.031Z,27.80
2022-12-14T18:27:23.958Z,27.84
2022-12-14T18:29:53.863Z,27.83
2022-12-14T18:32:23.796Z,27.80
2022-12-14T18:34:53.719Z,27.77
2022-12-14T18:37:27.166Z,27.78
2022-12-14T18:39:59.857Z,27.76
2022-12-14T18:42:29.909Z,27.75
2022-12-14T18:45:00.302Z,27.76
2022-12-14T18:47:44.982Z,27.77
2022-12-14T18:50:16.476Z,27.77
2022-12-14T18:52:48.430Z,27.73
2022-12-14T18:55:28.739Z,27.70
2022-12-14T18:58:01.155Z,27.76
2022-12-14T19:00:39.083Z,27.76
2022-12-14T19:03:09.395Z,27.72
2022-12-14T19:05:39.817Z,27.65
2022-12-14T19:08:12.613Z,27.68
2022-12-14T19:10:47.015Z,27.71
2022-12-14T19:13:25.511Z,27.70
2022-12-14T19:15:57.126Z,27.69
2022-12-14T19:18:29.692Z,27.70
2022-12-14T19:21:01.187Z,27.69
2022-12-14T19:23:31.685Z,27.62
2022-12-14T19:26:05.307Z,27.65
2022-12-14T19:28:35.883Z,27.65
2022-12-14T19:31:06.287Z,27.69
2022-12-14T19:33:36.475Z,27.70
2022-12-14T19:36:10.783Z,27.61
2022-12-14T19:38:41.381Z,27.62
2022-12-14T19:41:14.495Z,27.62
2022-12-14T19:43:44.835Z,27.63
2022-12-14T19:46:18.174Z,27.60
2022-12-14T19:48:48.732Z,27.63
2022-12-14T19:51:20.508Z,27.62
2022-12-14T19:53:50.813Z,27.61
2022-12-14T19:56:21.408Z,27.58
2022-12-14T19:58:51.765Z,27.56
2022-12-14T20:01:22.133Z,27.62
2022-12-14T20:03:52.798Z,27.58
2022-12-14T20:06:23.072Z,27.57
2022-12-14T20:08:53.392Z,27.59
2022-12-14T20:11:23.673Z,27.57
2022-12-14T20:13:58.152Z,27.55
2022-12-14T20:16:31.349Z,27.53
2022-12-14T20:19:01.708Z,27.55
2022-12-14T20:21:32.284Z,27.58
2022-12-14T20:24:03.960Z,27.59
2022-12-14T20:26:35.035Z,27.55
2022-12-14T20:29:08.079Z,27.56
2022-12-14T20:31:39.136Z,27.54
2022-12-14T20:34:10.654Z,27.54
2022-12-14T20:36:42.715Z,27.55
2022-12-14T20:39:13.121Z,27.55
2022-12-14T20:41:43.443Z,27.53
2022-12-14T20:44:18.321Z,27.54
2022-12-14T20:46:49.404Z,27.49
2022-12-14T20:49:22.284Z,27.54
2022-12-14T20:51:52.552Z,27.48
2022-12-14T20:54:24.404Z,27.48
2022-12-14T20:56:54.609Z,27.56
2022-12-14T20:59:24.943Z,27.53
2022-12-14T21:01:56.450Z,27.50
2022-12-14T21:04:28.063Z,27.48
2022-12-14T21:06:58.194Z,27.47
2022-12-14T21:09:28.521Z,27.47
2022-12-14T21:12:16.828Z,27.47
2022-12-14T21:14:50.764Z,27.49
2022-12-14T21:17:22.696Z,27.48
2022-12-14T21:19:53.871Z,27.46
2022-12-14T21:22:26.160Z,27.49
2022-12-14T21:25:05.372Z,27.55
2022-12-14T21:27:40.329Z,27.49
2022-12-14T21:30:13.469Z,27.49
2022-12-14T21:32:43.751Z,27.49
2022-12-14T21:35:15.420Z,27.46
2022-12-14T21:37:47.225Z,27.44
2022-12-14T21:40:37.145Z,27.47
2022-12-14T21:43:07.392Z,27.45
2022-12-14T21:45:37.587Z,27.40
2022-12-14T21:48:07.883Z,27.35
2022-12-14T21:50:38.016Z,27.37
2022-12-14T21:53:08.007Z,27.40
2022-12-14T21:55:38.235Z,27.33
2022-12-14T21:58:20.746Z,27.31
2022-12-14T22:00:50.995Z,27.31
2022-12-14T22:03:21.231Z,27.29
2022-12-14T22:05:51.738Z,27.31
2022-12-14T22:08:22.000Z,27.34
2022-12-14T22:10:52.220Z,27.33
2022-12-14T22:13:22.355Z,27.33
2022-12-14T22:15:52.639Z,27.30
2022-12-14T22:18:23.579Z,27.24
2022-12-14T22:20:53.868Z,27.17
2022-12-14T22:23:23.823Z,27.18
2022-12-14T22:25:53.906Z,27.15
2022-12-14T22:28:24.848Z,27.20
2022-12-14T22:30:54.973Z,27.20
2022-12-14T22:33:24.883Z,27.25
2022-12-14T22:35:55.159Z,27.21
2022-12-14T22:38:25.755Z,27.24
2022-12-14T22:40:55.944Z,27.25
2022-12-14T22:43:29.827Z,27.19
2022-12-14T22:46:04.380Z,27.23
2022-12-14T22:48:35.959Z,27.24
2022-12-14T22:51:09.154Z,27.27
2022-12-14T22:53:40.053Z,27.25
2022-12-14T22:56:29.323Z,27.13
2022-12-14T22:59:08.811Z,27.08
2022-12-14T23:02:13.538Z,27.09
2022-12-14T23:04:44.184Z,27.03
2022-12-14T23:07:14.502Z,27.04
2022-12-14T23:10:02.811Z,26.82
2022-12-14T23:12:51.547Z,26.75
2022-12-14T23:15:40.162Z,26.71
2022-12-14T23:18:28.953Z,26.73
2022-12-14T23:21:17.682Z,26.78
2022-12-14T23:24:06.839Z,26.80
2022-12-14T23:26:55.342Z,26.84
2022-12-14T23:29:43.654Z,26.84
2022-12-14T23:32:32.051Z,26.84
2022-12-14T23:35:20.719Z,26.86
2022-12-14T23:38:09.225Z,26.85
2022-12-14T23:40:58.451Z,26.82
2022-12-14T23:43:46.720Z,26.90
2022-12-14T23:46:35.498Z,26.87
2022-12-14T23:49:24.106Z,26.92
2022-12-14T23:52:12.659Z,26.86
2022-12-14T23:55:01.003Z,26.86
2022-12-14T23:57:49.553Z,26.88
